Buena Vista Township, New Jersey
Current Conditions -  °F | °C
As of 1:02 PM on Thursday 23 Oct 2014 (Local Time) from KMIV Reporting Station
Overcast Overcast  
Wind Chill: 52°   Ceiling: 2900
Heat Index: 52°   Visibility: 9mi
Dew Point: 49°   Wind: 9mph
Humidity: 89%   Direction: 300°WNW
Pressure: 29.77"   Gusts: 21mph
Location:  39.531°N, 74.8918°W
Report Text: KMIV 231702Z AUTO 30008G18KT 9SM SCT014 BKN029 OVC044 11/09 A2977 RMK AO2 RAE00 P0000 T01110094
Loading
Personal Weather Stations






























Interactive Weather Map
Tropical Storm Tracking
New forecast layout! Learn more

10-Day Weather Forecast

Advertisements
Track Severe Weather on mobile